sensor_id;sensor_type;location;lat;lon;timestamp;P1;durP1;ratioP1;P2;durP2;ratioP2
12966;SDS011;6548;49.996;8.238;2024-01-30T00:05:19;27.23;;;14.70;;
12966;SDS011;6548;49.996;8.238;2024-01-30T00:07:45;28.13;;;15.50;;
12966;SDS011;6548;49.996;8.238;2024-01-30T00:10:10;23.08;;;14.35;;
12966;SDS011;6548;49.996;8.238;2024-01-30T00:12:36;24.48;;;15.02;;
12966;SDS011;6548;49.996;8.238;2024-01-30T00:15:01;27.00;;;14.65;;
12966;SDS011;6548;49.996;8.238;2024-01-30T00:17:29;23.40;;;14.52;;
12966;SDS011;6548;49.996;8.238;2024-01-30T00:19:55;25.25;;;14.75;;
12966;SDS011;6548;49.996;8.238;2024-01-30T00:22:20;24.75;;;14.50;;
12966;SDS011;6548;49.996;8.238;2024-01-30T00:24:46;21.48;;;13.60;;
12966;SDS011;6548;49.996;8.238;2024-01-30T00:27:12;26.15;;;15.02;;
12966;SDS011;6548;49.996;8.238;2024-01-30T00:29:37;26.52;;;15.18;;
12966;SDS011;6548;49.996;8.238;2024-01-30T00:32:03;26.10;;;15.45;;
12966;SDS011;6548;49.996;8.238;2024-01-30T00:34:28;29.23;;;15.48;;
12966;SDS011;6548;49.996;8.238;2024-01-30T00:36:54;26.00;;;14.77;;
12966;SDS011;6548;49.996;8.238;2024-01-30T00:39:19;25.35;;;14.63;;
12966;SDS011;6548;49.996;8.238;2024-01-30T00:41:45;24.95;;;16.00;;
12966;SDS011;6548;49.996;8.238;2024-01-30T00:44:11;25.55;;;15.80;;
12966;SDS011;6548;49.996;8.238;2024-01-30T00:46:36;26.95;;;14.38;;
12966;SDS011;6548;49.996;8.238;2024-01-30T00:49:02;23.23;;;14.65;;
12966;SDS011;6548;49.996;8.238;2024-01-30T00:51:27;25.55;;;16.50;;
12966;SDS011;6548;49.996;8.238;2024-01-30T00:53:54;27.55;;;15.23;;
12966;SDS011;6548;49.996;8.238;2024-01-30T00:56:20;24.30;;;13.85;;
12966;SDS011;6548;49.996;8.238;2024-01-30T00:58:46;24.67;;;14.43;;
12966;SDS011;6548;49.996;8.238;2024-01-30T01:01:11;24.60;;;15.02;;
12966;SDS011;6548;49.996;8.238;2024-01-30T01:03:37;24.52;;;14.73;;
12966;SDS011;6548;49.996;8.238;2024-01-30T01:06:05;25.83;;;15.45;;
12966;SDS011;6548;49.996;8.238;2024-01-30T01:08:31;25.92;;;15.05;;
12966;SDS011;6548;49.996;8.238;2024-01-30T01:10:56;23.75;;;14.35;;
12966;SDS011;6548;49.996;8.238;2024-01-30T01:13:22;22.90;;;14.68;;
12966;SDS011;6548;49.996;8.238;2024-01-30T01:15:47;25.65;;;15.07;;
12966;SDS011;6548;49.996;8.238;2024-01-30T01:18:13;25.92;;;14.65;;
12966;SDS011;6548;49.996;8.238;2024-01-30T01:20:38;24.20;;;14.63;;
12966;SDS011;6548;49.996;8.238;2024-01-30T01:23:04;25.58;;;15.23;;
12966;SDS011;6548;49.996;8.238;2024-01-30T01:25:29;27.50;;;15.05;;
12966;SDS011;6548;49.996;8.238;2024-01-30T01:27:55;30.50;;;15.57;;
12966;SDS011;6548;49.996;8.238;2024-01-30T01:30:21;25.90;;;14.88;;
12966;SDS011;6548;49.996;8.238;2024-01-30T01:32:50;29.52;;;15.20;;
12966;SDS011;6548;49.996;8.238;2024-01-30T01:35:20;23.60;;;15.02;;
12966;SDS011;6548;49.996;8.238;2024-01-30T01:37:47;24.77;;;15.23;;
12966;SDS011;6548;49.996;8.238;2024-01-30T01:40:19;25.10;;;15.43;;
12966;SDS011;6548;49.996;8.238;2024-01-30T01:42:46;25.40;;;14.82;;
12966;SDS011;6548;49.996;8.238;2024-01-30T01:45:11;27.60;;;15.27;;
12966;SDS011;6548;49.996;8.238;2024-01-30T01:47:37;24.08;;;14.15;;
12966;SDS011;6548;49.996;8.238;2024-01-30T01:50:03;24.15;;;15.43;;
12966;SDS011;6548;49.996;8.238;2024-01-30T01:52:29;26.77;;;14.85;;
12966;SDS011;6548;49.996;8.238;2024-01-30T01:54:54;23.15;;;14.45;;
12966;SDS011;6548;49.996;8.238;2024-01-30T01:57:20;22.25;;;14.35;;
12966;SDS011;6548;49.996;8.238;2024-01-30T01:59:46;25.67;;;16.13;;
12966;SDS011;6548;49.996;8.238;2024-01-30T02:02:12;26.13;;;13.90;;
12966;SDS011;6548;49.996;8.238;2024-01-30T02:04:42;26.73;;;14.68;;
12966;SDS011;6548;49.996;8.238;2024-01-30T02:07:08;23.17;;;13.75;;
12966;SDS011;6548;49.996;8.238;2024-01-30T02:09:34;22.33;;;14.00;;
12966;SDS011;6548;49.996;8.238;2024-01-30T02:12:00;24.55;;;14.32;;
12966;SDS011;6548;49.996;8.238;2024-01-30T02:14:25;23.13;;;14.52;;
12966;SDS011;6548;49.996;8.238;2024-01-30T02:16:51;23.50;;;14.90;;
12966;SDS011;6548;49.996;8.238;2024-01-30T02:19:17;22.20;;;14.73;;
12966;SDS011;6548;49.996;8.238;2024-01-30T02:21:42;24.17;;;14.20;;
12966;SDS011;6548;49.996;8.238;2024-01-30T02:24:10;23.90;;;14.05;;
12966;SDS011;6548;49.996;8.238;2024-01-30T02:26:35;25.77;;;14.18;;
12966;SDS011;6548;49.996;8.238;2024-01-30T02:29:01;22.80;;;13.10;;
12966;SDS011;6548;49.996;8.238;2024-01-30T02:31:26;23.30;;;14.95;;
12966;SDS011;6548;49.996;8.238;2024-01-30T02:33:52;21.33;;;14.23;;
12966;SDS011;6548;49.996;8.238;2024-01-30T02:36:17;24.73;;;13.52;;
12966;SDS011;6548;49.996;8.238;2024-01-30T02:38:43;21.42;;;13.73;;
12966;SDS011;6548;49.996;8.238;2024-01-30T02:41:09;29.52;;;15.13;;
12966;SDS011;6548;49.996;8.238;2024-01-30T02:43:34;24.17;;;14.23;;
12966;SDS011;6548;49.996;8.238;2024-01-30T02:46:00;27.40;;;15.75;;
12966;SDS011;6548;49.996;8.238;2024-01-30T02:48:25;30.48;;;15.23;;
12966;SDS011;6548;49.996;8.238;2024-01-30T02:50:51;27.70;;;14.65;;
12966;SDS011;6548;49.996;8.238;2024-01-30T02:53:17;30.73;;;15.77;;
12966;SDS011;6548;49.996;8.238;2024-01-30T02:55:42;23.35;;;13.73;;
12966;SDS011;6548;49.996;8.238;2024-01-30T02:58:08;24.23;;;13.65;;
12966;SDS011;6548;49.996;8.238;2024-01-30T03:00:34;26.25;;;16.33;;
12966;SDS011;6548;49.996;8.238;2024-01-30T03:02:59;25.50;;;14.75;;
12966;SDS011;6548;49.996;8.238;2024-01-30T03:05:25;23.10;;;13.90;;
12966;SDS011;6548;49.996;8.238;2024-01-30T03:07:51;27.60;;;14.32;;
12966;SDS011;6548;49.996;8.238;2024-01-30T03:10:16;25.45;;;14.43;;
12966;SDS011;6548;49.996;8.238;2024-01-30T03:12:42;24.42;;;14.93;;
12966;SDS011;6548;49.996;8.238;2024-01-30T03:15:08;23.70;;;15.50;;
12966;SDS011;6548;49.996;8.238;2024-01-30T03:17:34;23.45;;;13.93;;
12966;SDS011;6548;49.996;8.238;2024-01-30T03:20:01;22.80;;;13.57;;
12966;SDS011;6548;49.996;8.238;2024-01-30T03:22:28;25.95;;;13.80;;
12966;SDS011;6548;49.996;8.238;2024-01-30T03:24:54;24.42;;;14.77;;
12966;SDS011;6548;49.996;8.238;2024-01-30T03:27:27;24.38;;;14.68;;
12966;SDS011;6548;49.996;8.238;2024-01-30T03:29:52;23.38;;;14.27;;
12966;SDS011;6548;49.996;8.238;2024-01-30T03:32:18;21.20;;;13.52;;
12966;SDS011;6548;49.996;8.238;2024-01-30T03:34:43;24.92;;;14.25;;
12966;SDS011;6548;49.996;8.238;2024-01-30T03:37:09;24.83;;;14.55;;
12966;SDS011;6548;49.996;8.238;2024-01-30T03:39:34;23.63;;;14.48;;
12966;SDS011;6548;49.996;8.238;2024-01-30T03:42:01;26.83;;;14.55;;
12966;SDS011;6548;49.996;8.238;2024-01-30T03:44:27;23.65;;;13.98;;
12966;SDS011;6548;49.996;8.238;2024-01-30T03:46:52;22.77;;;13.63;;
12966;SDS011;6548;49.996;8.238;2024-01-30T03:49:18;23.80;;;14.60;;
12966;SDS011;6548;49.996;8.238;2024-01-30T03:51:43;24.48;;;14.63;;
12966;SDS011;6548;49.996;8.238;2024-01-30T03:54:09;22.70;;;15.18;;
12966;SDS011;6548;49.996;8.238;2024-01-30T03:56:35;25.90;;;14.65;;
12966;SDS011;6548;49.996;8.238;2024-01-30T03:59:00;26.10;;;15.80;;
12966;SDS011;6548;49.996;8.238;2024-01-30T04:01:27;24.92;;;14.77;;
12966;SDS011;6548;49.996;8.238;2024-01-30T04:03:53;26.63;;;15.45;;
12966;SDS011;6548;49.996;8.238;2024-01-30T04:06:18;22.55;;;14.35;;
12966;SDS011;6548;49.996;8.238;2024-01-30T04:08:44;26.63;;;14.07;;
12966;SDS011;6548;49.996;8.238;2024-01-30T04:11:10;27.83;;;14.95;;
12966;SDS011;6548;49.996;8.238;2024-01-30T04:13:35;25.80;;;15.52;;
12966;SDS011;6548;49.996;8.238;2024-01-30T04:16:01;23.17;;;13.35;;
12966;SDS011;6548;49.996;8.238;2024-01-30T04:18:27;24.65;;;15.18;;
12966;SDS011;6548;49.996;8.238;2024-01-30T04:20:53;29.00;;;15.15;;
12966;SDS011;6548;49.996;8.238;2024-01-30T04:23:19;24.70;;;14.18;;
12966;SDS011;6548;49.996;8.238;2024-01-30T04:25:44;26.58;;;14.13;;
12966;SDS011;6548;49.996;8.238;2024-01-30T04:28:10;25.55;;;14.23;;
12966;SDS011;6548;49.996;8.238;2024-01-30T04:30:38;24.33;;;15.10;;
12966;SDS011;6548;49.996;8.238;2024-01-30T04:33:04;25.45;;;14.07;;
12966;SDS011;6548;49.996;8.238;2024-01-30T04:35:30;20.98;;;14.15;;
12966;SDS011;6548;49.996;8.238;2024-01-30T04:37:56;24.63;;;13.93;;
12966;SDS011;6548;49.996;8.238;2024-01-30T04:40:21;25.38;;;14.88;;
12966;SDS011;6548;49.996;8.238;2024-01-30T04:42:47;23.80;;;14.63;;
12966;SDS011;6548;49.996;8.238;2024-01-30T04:45:12;26.60;;;14.88;;
12966;SDS011;6548;49.996;8.238;2024-01-30T04:47:38;24.05;;;14.70;;
12966;SDS011;6548;49.996;8.238;2024-01-30T04:50:04;23.77;;;14.35;;
12966;SDS011;6548;49.996;8.238;2024-01-30T04:52:33;25.10;;;13.45;;
12966;SDS011;6548;49.996;8.238;2024-01-30T04:54:59;25.05;;;14.25;;
12966;SDS011;6548;49.996;8.238;2024-01-30T04:57:25;26.90;;;14.45;;
12966;SDS011;6548;49.996;8.238;2024-01-30T04:59:50;28.23;;;15.02;;
12966;SDS011;6548;49.996;8.238;2024-01-30T05:02:16;25.63;;;13.88;;
12966;SDS011;6548;49.996;8.238;2024-01-30T05:04:41;25.88;;;15.52;;
12966;SDS011;6548;49.996;8.238;2024-01-30T05:07:07;21.40;;;13.73;;
12966;SDS011;6548;49.996;8.238;2024-01-30T05:09:33;21.33;;;13.55;;
12966;SDS011;6548;49.996;8.238;2024-01-30T05:11:58;21.73;;;14.30;;
12966;SDS011;6548;49.996;8.238;2024-01-30T05:14:24;27.70;;;14.73;;
12966;SDS011;6548;49.996;8.238;2024-01-30T05:16:50;26.05;;;14.82;;
12966;SDS011;6548;49.996;8.238;2024-01-30T05:19:15;23.98;;;14.77;;
12966;SDS011;6548;49.996;8.238;2024-01-30T05:21:42;28.80;;;15.45;;
12966;SDS011;6548;49.996;8.238;2024-01-30T05:24:07;24.33;;;15.02;;
12966;SDS011;6548;49.996;8.238;2024-01-30T05:26:35;28.00;;;17.23;;
12966;SDS011;6548;49.996;8.238;2024-01-30T05:29:00;33.38;;;19.25;;
12966;SDS011;6548;49.996;8.238;2024-01-30T05:31:26;35.78;;;18.35;;
12966;SDS011;6548;49.996;8.238;2024-01-30T05:33:52;31.40;;;18.05;;
12966;SDS011;6548;49.996;8.238;2024-01-30T05:36:17;35.85;;;19.73;;
12966;SDS011;6548;49.996;8.238;2024-01-30T05:38:43;39.88;;;19.95;;
12966;SDS011;6548;49.996;8.238;2024-01-30T05:41:09;38.45;;;20.13;;
12966;SDS011;6548;49.996;8.238;2024-01-30T05:43:34;35.72;;;19.75;;
12966;SDS011;6548;49.996;8.238;2024-01-30T05:46:00;30.33;;;18.95;;
12966;SDS011;6548;49.996;8.238;2024-01-30T05:48:25;33.10;;;17.13;;
12966;SDS011;6548;49.996;8.238;2024-01-30T05:50:51;29.45;;;17.25;;
12966;SDS011;6548;49.996;8.238;2024-01-30T05:53:16;29.17;;;16.73;;
12966;SDS011;6548;49.996;8.238;2024-01-30T05:55:42;28.75;;;15.98;;
12966;SDS011;6548;49.996;8.238;2024-01-30T05:58:07;33.95;;;17.58;;
12966;SDS011;6548;49.996;8.238;2024-01-30T06:00:33;30.98;;;17.40;;
12966;SDS011;6548;49.996;8.238;2024-01-30T06:02:58;27.70;;;16.27;;
12966;SDS011;6548;49.996;8.238;2024-01-30T06:05:24;28.20;;;15.57;;
12966;SDS011;6548;49.996;8.238;2024-01-30T06:07:49;25.90;;;14.98;;
12966;SDS011;6548;49.996;8.238;2024-01-30T06:10:15;25.02;;;14.77;;
12966;SDS011;6548;49.996;8.238;2024-01-30T06:12:40;23.58;;;15.88;;
12966;SDS011;6548;49.996;8.238;2024-01-30T06:15:06;27.30;;;15.60;;
12966;SDS011;6548;49.996;8.238;2024-01-30T06:17:32;27.17;;;15.60;;
12966;SDS011;6548;49.996;8.238;2024-01-30T06:19:57;26.58;;;15.68;;
12966;SDS011;6548;49.996;8.238;2024-01-30T06:22:23;26.42;;;14.70;;
12966;SDS011;6548;49.996;8.238;2024-01-30T06:24:49;25.38;;;14.77;;
12966;SDS011;6548;49.996;8.238;2024-01-30T06:27:14;24.77;;;14.68;;
12966;SDS011;6548;49.996;8.238;2024-01-30T06:29:40;22.63;;;14.10;;
12966;SDS011;6548;49.996;8.238;2024-01-30T06:32:08;28.75;;;14.23;;
12966;SDS011;6548;49.996;8.238;2024-01-30T06:34:33;27.42;;;15.65;;
12966;SDS011;6548;49.996;8.238;2024-01-30T06:36:59;23.25;;;14.20;;
12966;SDS011;6548;49.996;8.238;2024-01-30T06:39:25;24.23;;;14.88;;
12966;SDS011;6548;49.996;8.238;2024-01-30T06:41:51;27.90;;;14.98;;
12966;SDS011;6548;49.996;8.238;2024-01-30T06:44:17;26.30;;;14.07;;
12966;SDS011;6548;49.996;8.238;2024-01-30T06:46:42;25.25;;;14.65;;
12966;SDS011;6548;49.996;8.238;2024-01-30T06:49:08;26.83;;;16.48;;
12966;SDS011;6548;49.996;8.238;2024-01-30T06:51:33;26.02;;;15.30;;
12966;SDS011;6548;49.996;8.238;2024-01-30T06:53:59;28.77;;;16.85;;
12966;SDS011;6548;49.996;8.238;2024-01-30T06:56:25;34.50;;;17.30;;
12966;SDS011;6548;49.996;8.238;2024-01-30T06:58:50;29.50;;;16.50;;
12966;SDS011;6548;49.996;8.238;2024-01-30T07:01:16;30.05;;;16.88;;
12966;SDS011;6548;49.996;8.238;2024-01-30T07:03:42;27.27;;;16.95;;
12966;SDS011;6548;49.996;8.238;2024-01-30T07:06:08;26.70;;;16.70;;
12966;SDS011;6548;49.996;8.238;2024-01-30T07:08:35;28.70;;;16.30;;
12966;SDS011;6548;49.996;8.238;2024-01-30T07:11:02;32.15;;;16.70;;
12966;SDS011;6548;49.996;8.238;2024-01-30T07:13:28;26.85;;;16.00;;
12966;SDS011;6548;49.996;8.238;2024-01-30T07:15:53;25.92;;;16.08;;
12966;SDS011;6548;49.996;8.238;2024-01-30T07:18:19;22.02;;;15.13;;
12966;SDS011;6548;49.996;8.238;2024-01-30T07:20:44;26.40;;;15.75;;
12966;SDS011;6548;49.996;8.238;2024-01-30T07:23:14;29.60;;;15.95;;
12966;SDS011;6548;49.996;8.238;2024-01-30T07:25:42;30.38;;;18.58;;
12966;SDS011;6548;49.996;8.238;2024-01-30T07:28:08;25.77;;;16.35;;
12966;SDS011;6548;49.996;8.238;2024-01-30T07:30:35;32.67;;;18.35;;
12966;SDS011;6548;49.996;8.238;2024-01-30T07:33:01;27.15;;;16.70;;
12966;SDS011;6548;49.996;8.238;2024-01-30T07:35:27;29.00;;;17.48;;
12966;SDS011;6548;49.996;8.238;2024-01-30T07:37:52;30.08;;;16.02;;
12966;SDS011;6548;49.996;8.238;2024-01-30T07:40:18;29.60;;;17.00;;
12966;SDS011;6548;49.996;8.238;2024-01-30T07:42:43;32.90;;;17.90;;
12966;SDS011;6548;49.996;8.238;2024-01-30T07:45:09;27.88;;;17.35;;
12966;SDS011;6548;49.996;8.238;2024-01-30T07:47:34;31.00;;;18.65;;
12966;SDS011;6548;49.996;8.238;2024-01-30T07:50:00;31.27;;;17.40;;
12966;SDS011;6548;49.996;8.238;2024-01-30T07:52:26;27.15;;;15.80;;
12966;SDS011;6548;49.996;8.238;2024-01-30T07:54:51;27.73;;;17.52;;
12966;SDS011;6548;49.996;8.238;2024-01-30T07:57:17;33.55;;;18.83;;
12966;SDS011;6548;49.996;8.238;2024-01-30T07:59:43;35.63;;;19.48;;
12966;SDS011;6548;49.996;8.238;2024-01-30T08:02:09;37.90;;;21.02;;
12966;SDS011;6548;49.996;8.238;2024-01-30T08:04:35;39.30;;;21.17;;
12966;SDS011;6548;49.996;8.238;2024-01-30T08:07:01;36.95;;;20.25;;
12966;SDS011;6548;49.996;8.238;2024-01-30T08:09:26;38.85;;;19.77;;
12966;SDS011;6548;49.996;8.238;2024-01-30T08:11:52;36.08;;;19.27;;
12966;SDS011;6548;49.996;8.238;2024-01-30T08:14:18;29.08;;;18.05;;
12966;SDS011;6548;49.996;8.238;2024-01-30T08:16:43;30.83;;;18.60;;
12966;SDS011;6548;49.996;8.238;2024-01-30T08:19:09;31.05;;;17.63;;
12966;SDS011;6548;49.996;8.238;2024-01-30T08:21:34;31.75;;;17.25;;
12966;SDS011;6548;49.996;8.238;2024-01-30T08:24:02;31.10;;;17.42;;
12966;SDS011;6548;49.996;8.238;2024-01-30T08:26:29;30.48;;;15.82;;
12966;SDS011;6548;49.996;8.238;2024-01-30T08:28:55;31.83;;;18.13;;
12966;SDS011;6548;49.996;8.238;2024-01-30T08:31:21;28.35;;;16.65;;
12966;SDS011;6548;49.996;8.238;2024-01-30T08:33:46;28.35;;;17.08;;
12966;SDS011;6548;49.996;8.238;2024-01-30T08:36:12;28.95;;;16.17;;
12966;SDS011;6548;49.996;8.238;2024-01-30T08:38:37;29.30;;;17.88;;
12966;SDS011;6548;49.996;8.238;2024-01-30T08:41:03;26.05;;;16.55;;
12966;SDS011;6548;49.996;8.238;2024-01-30T08:43:29;26.98;;;17.55;;
12966;SDS011;6548;49.996;8.238;2024-01-30T08:45:54;28.23;;;15.98;;
12966;SDS011;6548;49.996;8.238;2024-01-30T08:48:20;30.35;;;18.02;;
12966;SDS011;6548;49.996;8.238;2024-01-30T08:50:47;30.25;;;18.05;;
12966;SDS011;6548;49.996;8.238;2024-01-30T08:53:13;30.33;;;18.48;;
12966;SDS011;6548;49.996;8.238;2024-01-30T08:55:38;25.50;;;17.23;;
12966;SDS011;6548;49.996;8.238;2024-01-30T08:58:04;31.52;;;18.85;;
12966;SDS011;6548;49.996;8.238;2024-01-30T09:00:30;26.83;;;17.15;;
12966;SDS011;6548;49.996;8.238;2024-01-30T09:02:55;29.77;;;18.83;;
12966;SDS011;6548;49.996;8.238;2024-01-30T09:05:21;33.47;;;17.58;;
12966;SDS011;6548;49.996;8.238;2024-01-30T09:07:46;31.27;;;18.80;;
12966;SDS011;6548;49.996;8.238;2024-01-30T09:10:12;29.55;;;18.85;;
12966;SDS011;6548;49.996;8.238;2024-01-30T09:12:37;34.03;;;19.38;;
12966;SDS011;6548;49.996;8.238;2024-01-30T09:15:03;30.10;;;18.13;;
12966;SDS011;6548;49.996;8.238;2024-01-30T09:17:29;28.23;;;18.13;;
12966;SDS011;6548;49.996;8.238;2024-01-30T09:19:55;27.23;;;17.67;;
12966;SDS011;6548;49.996;8.238;2024-01-30T09:22:20;31.00;;;17.85;;
12966;SDS011;6548;49.996;8.238;2024-01-30T09:24:46;29.08;;;17.50;;
12966;SDS011;6548;49.996;8.238;2024-01-30T09:27:11;29.63;;;18.20;;
12966;SDS011;6548;49.996;8.238;2024-01-30T09:29:37;32.42;;;18.85;;
12966;SDS011;6548;49.996;8.238;2024-01-30T09:32:03;28.05;;;18.05;;
12966;SDS011;6548;49.996;8.238;2024-01-30T09:34:29;26.70;;;17.42;;
12966;SDS011;6548;49.996;8.238;2024-01-30T09:36:54;33.05;;;17.85;;
12966;SDS011;6548;49.996;8.238;2024-01-30T09:39:20;29.95;;;16.42;;
12966;SDS011;6548;49.996;8.238;2024-01-30T09:41:49;27.55;;;17.33;;
12966;SDS011;6548;49.996;8.238;2024-01-30T09:44:25;24.67;;;16.15;;
12966;SDS011;6548;49.996;8.238;2024-01-30T09:46:54;27.45;;;16.38;;
12966;SDS011;6548;49.996;8.238;2024-01-30T09:49:20;25.70;;;17.48;;
12966;SDS011;6548;49.996;8.238;2024-01-30T09:51:48;29.58;;;17.30;;
12966;SDS011;6548;49.996;8.238;2024-01-30T09:54:15;24.83;;;16.33;;
12966;SDS011;6548;49.996;8.238;2024-01-30T09:56:41;27.85;;;17.30;;
12966;SDS011;6548;49.996;8.238;2024-01-30T09:59:07;27.85;;;18.20;;
12966;SDS011;6548;49.996;8.238;2024-01-30T10:01:34;25.30;;;15.73;;
12966;SDS011;6548;49.996;8.238;2024-01-30T10:04:00;28.00;;;16.75;;
12966;SDS011;6548;49.996;8.238;2024-01-30T10:06:26;29.83;;;18.42;;
12966;SDS011;6548;49.996;8.238;2024-01-30T10:08:52;28.85;;;18.00;;
12966;SDS011;6548;49.996;8.238;2024-01-30T10:11:18;27.77;;;17.73;;
12966;SDS011;6548;49.996;8.238;2024-01-30T10:13:43;26.17;;;16.60;;
12966;SDS011;6548;49.996;8.238;2024-01-30T10:16:09;27.60;;;17.38;;
12966;SDS011;6548;49.996;8.238;2024-01-30T10:18:34;26.83;;;17.08;;
12966;SDS011;6548;49.996;8.238;2024-01-30T10:21:00;31.60;;;17.33;;
12966;SDS011;6548;49.996;8.238;2024-01-30T10:23:26;33.50;;;18.13;;
12966;SDS011;6548;49.996;8.238;2024-01-30T10:25:51;31.08;;;18.73;;
12966;SDS011;6548;49.996;8.238;2024-01-30T10:28:17;30.10;;;17.13;;
12966;SDS011;6548;49.996;8.238;2024-01-30T10:30:43;28.92;;;17.10;;
12966;SDS011;6548;49.996;8.238;2024-01-30T10:33:08;30.33;;;17.80;;
12966;SDS011;6548;49.996;8.238;2024-01-30T10:35:34;30.10;;;17.88;;
12966;SDS011;6548;49.996;8.238;2024-01-30T10:38:00;26.90;;;18.52;;
12966;SDS011;6548;49.996;8.238;2024-01-30T10:40:28;33.90;;;18.77;;
12966;SDS011;6548;49.996;8.238;2024-01-30T10:42:54;26.23;;;16.95;;
12966;SDS011;6548;49.996;8.238;2024-01-30T10:45:21;31.75;;;17.83;;
12966;SDS011;6548;49.996;8.238;2024-01-30T10:47:52;28.65;;;17.13;;
12966;SDS011;6548;49.996;8.238;2024-01-30T10:50:21;30.27;;;18.42;;
12966;SDS011;6548;49.996;8.238;2024-01-30T10:52:49;35.10;;;18.20;;
12966;SDS011;6548;49.996;8.238;2024-01-30T10:55:15;26.17;;;16.98;;
12966;SDS011;6548;49.996;8.238;2024-01-30T10:57:43;26.83;;;16.90;;
12966;SDS011;6548;49.996;8.238;2024-01-30T11:00:09;25.40;;;16.10;;
12966;SDS011;6548;49.996;8.238;2024-01-30T11:02:38;27.92;;;16.40;;
12966;SDS011;6548;49.996;8.238;2024-01-30T11:05:05;28.05;;;17.85;;
12966;SDS011;6548;49.996;8.238;2024-01-30T11:07:30;28.52;;;17.50;;
12966;SDS011;6548;49.996;8.238;2024-01-30T11:10:02;30.05;;;17.27;;
12966;SDS011;6548;49.996;8.238;2024-01-30T11:15:02;25.92;;;15.82;;
12966;SDS011;6548;49.996;8.238;2024-01-30T11:17:40;28.52;;;16.65;;
12966;SDS011;6548;49.996;8.238;2024-01-30T11:20:19;25.15;;;15.95;;
12966;SDS011;6548;49.996;8.238;2024-01-30T11:22:58;33.95;;;16.50;;
12966;SDS011;6548;49.996;8.238;2024-01-30T11:25:24;27.55;;;16.65;;
12966;SDS011;6548;49.996;8.238;2024-01-30T11:27:51;29.30;;;17.95;;
12966;SDS011;6548;49.996;8.238;2024-01-30T11:30:22;33.13;;;19.30;;
12966;SDS011;6548;49.996;8.238;2024-01-30T11:33:08;30.17;;;17.33;;
12966;SDS011;6548;49.996;8.238;2024-01-30T11:35:37;27.02;;;16.92;;
12966;SDS011;6548;49.996;8.238;2024-01-30T11:38:07;28.25;;;16.40;;
12966;SDS011;6548;49.996;8.238;2024-01-30T11:40:34;27.40;;;17.70;;
12966;SDS011;6548;49.996;8.238;2024-01-30T11:43:01;27.40;;;19.77;;
12966;SDS011;6548;49.996;8.238;2024-01-30T11:45:28;31.10;;;19.27;;
12966;SDS011;6548;49.996;8.238;2024-01-30T11:47:53;42.08;;;21.42;;
12966;SDS011;6548;49.996;8.238;2024-01-30T11:50:19;35.13;;;22.45;;
12966;SDS011;6548;49.996;8.238;2024-01-30T11:52:45;31.92;;;21.30;;
12966;SDS011;6548;49.996;8.238;2024-01-30T11:55:11;29.73;;;19.08;;
12966;SDS011;6548;49.996;8.238;2024-01-30T11:57:38;29.50;;;21.27;;
12966;SDS011;6548;49.996;8.238;2024-01-30T12:00:04;28.45;;;19.55;;
12966;SDS011;6548;49.996;8.238;2024-01-30T12:02:35;30.38;;;20.10;;
12966;SDS011;6548;49.996;8.238;2024-01-30T12:05:07;31.20;;;21.15;;
12966;SDS011;6548;49.996;8.238;2024-01-30T12:07:34;32.85;;;18.38;;
12966;SDS011;6548;49.996;8.238;2024-01-30T12:10:00;26.83;;;19.17;;
12966;SDS011;6548;49.996;8.238;2024-01-30T12:12:26;29.02;;;19.05;;
12966;SDS011;6548;49.996;8.238;2024-01-30T12:14:53;33.03;;;19.50;;
12966;SDS011;6548;49.996;8.238;2024-01-30T12:20:03;28.35;;;18.77;;
12966;SDS011;6548;49.996;8.238;2024-01-30T12:22:33;30.23;;;19.05;;
12966;SDS011;6548;49.996;8.238;2024-01-30T12:25:07;32.15;;;20.27;;
12966;SDS011;6548;49.996;8.238;2024-01-30T12:27:37;25.98;;;18.50;;
12966;SDS011;6548;49.996;8.238;2024-01-30T12:30:06;30.20;;;18.52;;
12966;SDS011;6548;49.996;8.238;2024-01-30T12:32:36;27.48;;;18.67;;
12966;SDS011;6548;49.996;8.238;2024-01-30T12:35:05;28.55;;;17.10;;
12966;SDS011;6548;49.996;8.238;2024-01-30T12:37:33;27.23;;;18.25;;
12966;SDS011;6548;49.996;8.238;2024-01-30T12:39:58;28.95;;;19.35;;
12966;SDS011;6548;49.996;8.238;2024-01-30T12:42:24;27.35;;;19.58;;
12966;SDS011;6548;49.996;8.238;2024-01-30T12:44:52;29.40;;;19.80;;
12966;SDS011;6548;49.996;8.238;2024-01-30T12:47:17;26.70;;;17.83;;
12966;SDS011;6548;49.996;8.238;2024-01-30T12:49:43;29.02;;;17.45;;
12966;SDS011;6548;49.996;8.238;2024-01-30T12:52:10;28.75;;;18.70;;
12966;SDS011;6548;49.996;8.238;2024-01-30T12:54:36;29.77;;;19.00;;
12966;SDS011;6548;49.996;8.238;2024-01-30T12:57:02;31.42;;;18.52;;
12966;SDS011;6548;49.996;8.238;2024-01-30T12:59:29;26.92;;;19.80;;
12966;SDS011;6548;49.996;8.238;2024-01-30T13:01:54;26.70;;;19.17;;
12966;SDS011;6548;49.996;8.238;2024-01-30T13:04:20;31.70;;;18.63;;
12966;SDS011;6548;49.996;8.238;2024-01-30T13:06:45;27.73;;;19.90;;
12966;SDS011;6548;49.996;8.238;2024-01-30T13:09:11;25.98;;;17.95;;
12966;SDS011;6548;49.996;8.238;2024-01-30T13:11:37;30.65;;;19.10;;
12966;SDS011;6548;49.996;8.238;2024-01-30T13:14:02;33.88;;;19.05;;
12966;SDS011;6548;49.996;8.238;2024-01-30T13:16:28;30.65;;;20.42;;
12966;SDS011;6548;49.996;8.238;2024-01-30T13:18:53;34.33;;;20.88;;
12966;SDS011;6548;49.996;8.238;2024-01-30T13:21:20;29.05;;;18.58;;
12966;SDS011;6548;49.996;8.238;2024-01-30T13:23:46;31.23;;;18.85;;
12966;SDS011;6548;49.996;8.238;2024-01-30T13:26:11;27.67;;;19.05;;
12966;SDS011;6548;49.996;8.238;2024-01-30T13:28:37;29.27;;;19.05;;
12966;SDS011;6548;49.996;8.238;2024-01-30T13:31:03;29.00;;;18.38;;
12966;SDS011;6548;49.996;8.238;2024-01-30T13:33:30;25.85;;;17.15;;
12966;SDS011;6548;49.996;8.238;2024-01-30T13:35:55;32.08;;;19.15;;
12966;SDS011;6548;49.996;8.238;2024-01-30T13:38:21;26.73;;;17.90;;
12966;SDS011;6548;49.996;8.238;2024-01-30T13:40:46;25.00;;;17.02;;
12966;SDS011;6548;49.996;8.238;2024-01-30T13:43:12;27.67;;;17.73;;
12966;SDS011;6548;49.996;8.238;2024-01-30T13:45:37;26.15;;;17.90;;
12966;SDS011;6548;49.996;8.238;2024-01-30T13:48:03;27.10;;;17.75;;
12966;SDS011;6548;49.996;8.238;2024-01-30T13:50:29;26.30;;;17.70;;
12966;SDS011;6548;49.996;8.238;2024-01-30T13:52:54;26.17;;;17.23;;
12966;SDS011;6548;49.996;8.238;2024-01-30T13:55:20;25.42;;;16.65;;
12966;SDS011;6548;49.996;8.238;2024-01-30T13:57:45;24.55;;;15.65;;
12966;SDS011;6548;49.996;8.238;2024-01-30T14:00:11;25.15;;;17.00;;
12966;SDS011;6548;49.996;8.238;2024-01-30T14:02:41;25.05;;;16.27;;
12966;SDS011;6548;49.996;8.238;2024-01-30T14:05:06;28.30;;;18.33;;
12966;SDS011;6548;49.996;8.238;2024-01-30T14:07:32;31.65;;;17.65;;
12966;SDS011;6548;49.996;8.238;2024-01-30T14:09:58;29.30;;;16.45;;
12966;SDS011;6548;49.996;8.238;2024-01-30T14:12:23;28.10;;;18.15;;
12966;SDS011;6548;49.996;8.238;2024-01-30T14:14:49;26.95;;;17.38;;
12966;SDS011;6548;49.996;8.238;2024-01-30T14:17:15;30.40;;;18.05;;
12966;SDS011;6548;49.996;8.238;2024-01-30T14:19:40;27.27;;;17.40;;
12966;SDS011;6548;49.996;8.238;2024-01-30T14:22:06;31.10;;;18.27;;
12966;SDS011;6548;49.996;8.238;2024-01-30T14:24:32;30.70;;;19.23;;
12966;SDS011;6548;49.996;8.238;2024-01-30T14:26:57;27.13;;;18.00;;
12966;SDS011;6548;49.996;8.238;2024-01-30T14:29:24;29.40;;;17.33;;
12966;SDS011;6548;49.996;8.238;2024-01-30T14:31:50;25.85;;;17.33;;
12966;SDS011;6548;49.996;8.238;2024-01-30T14:34:15;29.30;;;18.60;;
12966;SDS011;6548;49.996;8.238;2024-01-30T14:36:42;26.75;;;18.00;;